Tie Plant, Mississippi
Current Conditions -  °F | °C
As of 11:55 PM on Saturday 22 Nov 2014 (Local Time) from KGNF Reporting Station
Overcast Overcast  
Wind Chill: 57°   Ceiling: 2400
Heat Index: 57°   Visibility: 10mi
Dew Point: 50°   Wind: 7mph
Humidity: 77%   Direction: 90°E
Pressure: 29.94"   Gusts: NA
Location:  33.74°N, 89.79°W
Report Text: KGNF 230555Z AUTO 09006KT 10SM OVC024 14/10 A2994 RMK AO2
Loading
Personal Weather Stations






























Interactive Weather Map New forecast layout! Learn more

10-Day Weather Forecast

Advertisements
Track Severe Weather on mobile